Time;durP1;ratioP1;P1;durP2;ratioP2;P2;SDS_P1;SDS_P2;PMS_P1;PMS_P2;Temp;Humidity;BMP_temperature;BMP_pressure;BME280_temperature;BME280_humidity;BME280_pressure;Samples;Min_cycle;Max_cycle;Signal;HPM_P1;HPM_P2
2022/04/07 00:01:32;;;;;;;;;2.33;0.33;;;;;13.56;58.92;99495.22;4992713;28;45657;-71
2022/04/07 00:03:57;;;;;;;;;0.67;0.33;;;;;13.60;59.02;99485.34;4992531;28;45644;-72
2022/04/07 00:06:23;;;;;;;;;0.00;0.00;;;;;13.57;58.28;99485.84;4998529;28;45574;-72
2022/04/07 00:08:49;;;;;;;;;1.33;0.33;;;;;13.60;58.02;99477.06;5012606;28;45974;-71
2022/04/07 00:11:15;;;;;;;;;1.00;0.33;;;;;13.63;58.29;99466.63;5012693;28;45337;-71
2022/04/07 00:13:40;;;;;;;;;0.67;0.00;;;;;13.59;58.60;99471.81;5012614;28;45708;-71
2022/04/07 00:16:06;;;;;;;;;1.00;0.00;;;;;13.61;57.48;99461.38;5012771;28;45369;-71
2022/04/07 00:18:32;;;;;;;;;0.33;0.33;;;;;13.60;58.23;99468.81;5008623;28;45738;-72
2022/04/07 00:20:57;;;;;;;;;0.67;0.67;;;;;13.60;58.01;99467.97;4994978;28;45809;-74
2022/04/07 00:23:23;;;;;;;;;0.67;0.67;;;;;13.57;57.68;99463.81;5012447;28;45709;-71
2022/04/07 00:25:55;;;;;;;;;1.33;0.67;;;;;13.59;58.28;99464.41;4995528;28;46095;-74
2022/04/07 00:28:21;;;;;;;;;0.00;0.00;;;;;13.63;57.55;99453.69;5014045;28;46280;-73
2022/04/07 00:30:46;;;;;;;;;0.67;0.67;;;;;13.62;57.16;99448.44;5012644;28;45587;-72
2022/04/07 00:33:12;;;;;;;;;0.67;0.67;;;;;13.67;57.32;99457.59;4994861;28;45427;-73
2022/04/07 00:35:38;;;;;;;;;1.00;0.67;;;;;13.69;56.93;99446.31;5011337;28;45236;-72
2022/04/07 00:38:04;;;;;;;;;0.67;0.67;;;;;13.72;57.12;99443.03;5011719;28;45680;-73
2022/04/07 00:40:30;;;;;;;;;3.00;0.00;;;;;13.71;57.00;99439.44;5011720;28;45400;-73
2022/04/07 00:42:56;;;;;;;;;1.00;0.67;;;;;13.71;57.44;99433.94;5010832;28;45380;-72
2022/04/07 00:45:23;;;;;;;;;0.33;0.00;;;;;13.69;57.50;99433.34;5012311;28;45340;-73
2022/04/07 00:47:50;;;;;;;;;1.00;0.33;;;;;13.77;56.56;99429.28;5012550;28;45761;-71
2022/04/07 00:50:16;;;;;;;;;0.00;0.00;;;;;13.78;56.63;99417.16;5011539;28;45767;-71
2022/04/07 00:53:02;;;;;;;;;1.67;0.67;;;;;13.82;56.92;99420.22;5012323;28;45246;-73
2022/04/07 00:55:28;;;;;;;;;2.33;0.00;;;;;13.81;56.87;99391.84;5011398;28;45890;-74
2022/04/07 00:57:54;;;;;;;;;0.67;0.00;;;;;13.81;57.28;99389.09;5011935;28;46229;-73
2022/04/07 01:00:20;;;;;;;;;2.00;0.67;;;;;13.72;56.87;99368.63;5014954;28;45791;-73
2022/04/07 01:02:45;;;;;;;;;0.67;0.67;;;;;13.83;56.27;99372.28;5015815;28;45793;-71
2022/04/07 01:05:11;;;;;;;;;0.67;0.67;;;;;13.79;56.99;99369.25;4997462;28;45907;-71
2022/04/07 01:07:39;;;;;;;;;1.00;0.33;;;;;13.82;56.19;99354.09;4998721;28;45970;-71
2022/04/07 01:10:08;;;;;;;;;2.67;0.67;;;;;13.80;57.03;99351.59;4993600;28;45442;-71
2022/04/07 01:12:35;;;;;;;;;3.33;2.00;;;;;13.82;56.41;99351.31;4995042;28;45396;-71
2022/04/07 01:15:03;;;;;;;;;3.00;1.00;;;;;13.81;56.79;99346.94;4977239;28;46166;-71
2022/04/07 01:17:30;;;;;;;;;1.67;1.00;;;;;13.81;56.45;99347.75;4980083;28;48002;-69
2022/04/07 01:19:56;;;;;;;;;3.67;3.00;;;;;13.77;57.33;99335.59;5014368;28;45371;-72
2022/04/07 01:22:22;;;;;;;;;4.67;0.67;;;;;13.81;56.47;99342.25;5014094;28;45646;-70
2022/04/07 01:24:48;;;;;;;;;0.33;0.33;;;;;13.80;57.40;99346.09;5014463;28;45649;-73
2022/04/07 01:27:16;;;;;;;;;0.67;0.00;;;;;13.79;59.32;99360.97;5017468;28;46433;-71
2022/04/07 01:29:42;;;;;;;;;3.33;0.33;;;;;13.75;59.96;99360.66;5014654;28;45394;-71
2022/04/07 01:32:12;;;;;;;;;1.33;1.33;;;;;13.72;59.63;99352.91;5015134;28;45463;-72
2022/04/07 01:34:39;;;;;;;;;1.67;0.67;;;;;13.67;59.60;99350.16;5014334;28;45980;-71
2022/04/07 01:37:07;;;;;;;;;0.33;0.33;;;;;13.71;59.46;99334.75;5010146;28;45530;-73
2022/04/07 01:39:34;;;;;;;;;0.00;0.00;;;;;13.72;59.89;99332.81;5013442;28;45497;-72
2022/04/07 01:41:59;;;;;;;;;1.00;1.00;;;;;13.72;59.32;99311.59;5015066;28;45712;-72
2022/04/07 01:44:26;;;;;;;;;3.33;1.00;;;;;13.65;59.67;99310.16;5014860;28;45746;-72
2022/04/07 01:46:51;;;;;;;;;1.33;1.33;;;;;13.66;58.87;99307.16;5014715;28;46091;-72
2022/04/07 01:49:21;;;;;;;;;1.67;0.67;;;;;13.66;59.27;99311.84;5014939;28;45361;-71
2022/04/07 01:51:48;;;;;;;;;1.00;0.00;;;;;13.70;59.13;99291.75;5014843;28;45857;-71
2022/04/07 01:54:14;;;;;;;;;0.67;0.67;;;;;13.71;58.58;99300.84;5012155;28;45509;-71
2022/04/07 01:56:41;;;;;;;;;2.67;0.67;;;;;13.72;59.37;99299.75;5014915;28;46101;-72
2022/04/07 01:59:08;;;;;;;;;2.00;0.67;;;;;13.72;58.40;99295.06;5013123;28;45725;-71
2022/04/07 02:01:34;;;;;;;;;3.33;2.67;;;;;13.70;58.49;99290.94;5017891;28;44777;-71
2022/04/07 02:04:00;;;;;;;;;2.00;0.33;;;;;13.74;58.73;99298.41;5013847;28;45435;-69
2022/04/07 02:06:26;;;;;;;;;1.67;0.67;;;;;13.72;59.44;99291.50;5013895;28;45836;-71
2022/04/07 02:08:52;;;;;;;;;3.00;0.67;;;;;13.69;59.78;99292.84;5013852;28;45756;-71
2022/04/07 02:11:17;;;;;;;;;0.00;0.00;;;;;13.72;60.18;99291.50;5012417;28;45877;-71
2022/04/07 02:13:43;;;;;;;;;0.67;0.67;;;;;13.69;60.50;99278.25;5013892;28;45417;-70
2022/04/07 02:16:10;;;;;;;;;3.33;0.67;;;;;13.66;59.87;99279.59;5013746;28;45882;-71
2022/04/07 02:18:36;;;;;;;;;1.00;1.00;;;;;13.71;60.31;99278.81;5002010;28;45672;-71
2022/04/07 02:21:03;;;;;;;;;0.00;0.00;;;;;13.66;59.88;99281.53;4994428;28;45831;-71
2022/04/07 02:23:28;;;;;;;;;1.67;0.67;;;;;13.65;59.75;99269.66;4994656;28;45621;-72
2022/04/07 02:25:54;;;;;;;;;0.00;0.00;;;;;13.67;60.41;99263.91;5002339;28;45705;-70
2022/04/07 02:28:20;;;;;;;;;0.00;0.00;;;;;13.66;60.27;99263.06;5017099;28;45458;-71
2022/04/07 02:30:46;;;;;;;;;2.00;0.33;;;;;13.62;60.63;99264.69;5014069;28;45784;-71
2022/04/07 02:33:12;;;;;;;;;1.00;1.00;;;;;13.63;61.39;99251.75;5016854;28;45717;-72
2022/04/07 02:35:38;;;;;;;;;1.67;0.67;;;;;13.64;61.31;99237.72;5011904;28;45821;-71
2022/04/07 02:38:04;;;;;;;;;0.67;0.67;;;;;13.67;61.98;99233.63;5013049;28;45985;-72
2022/04/07 02:40:32;;;;;;;;;3.33;0.00;;;;;13.66;62.53;99221.75;5013388;28;45715;-72
2022/04/07 02:42:58;;;;;;;;;0.00;0.00;;;;;13.66;62.04;99220.94;5013465;28;45649;-72
2022/04/07 02:45:23;;;;;;;;;1.00;1.00;;;;;13.53;61.98;99197.44;4996237;28;47782;-71
2022/04/07 02:47:49;;;;;;;;;0.33;0.00;;;;;13.63;62.45;99216.78;5013832;28;45319;-71
2022/04/07 02:50:16;;;;;;;;;1.67;1.00;;;;;13.58;62.93;99206.56;5012737;28;45550;-71
2022/04/07 02:52:42;;;;;;;;;0.67;0.67;;;;;13.56;62.94;99205.16;5013630;28;45940;-71
2022/04/07 02:55:08;;;;;;;;;1.00;1.00;;;;;13.51;63.06;99192.19;5013598;28;45731;-71
2022/04/07 02:57:34;;;;;;;;;1.33;0.67;;;;;13.54;62.95;99193.59;5013946;28;45375;-72
2022/04/07 03:00:00;;;;;;;;;0.67;0.67;;;;;13.57;62.87;99179.28;5013082;28;45436;-71
2022/04/07 03:02:26;;;;;;;;;1.67;0.67;;;;;13.57;62.65;99182.84;5012657;28;45875;-70
2022/04/07 03:04:52;;;;;;;;;2.00;1.00;;;;;13.58;63.19;99178.19;5012669;28;45711;-72
2022/04/07 03:07:18;;;;;;;;;2.67;1.33;;;;;13.54;63.39;99179.81;4999740;28;45707;-70
2022/04/07 03:09:43;;;;;;;;;0.00;0.00;;;;;13.56;62.70;99172.09;4993727;28;45817;-72
2022/04/07 03:12:09;;;;;;;;;0.67;0.67;;;;;13.62;62.94;99161.94;4975753;28;46912;-71
2022/04/07 03:14:35;;;;;;;;;0.00;0.00;;;;;13.64;62.70;99159.75;4993603;28;46172;-70
2022/04/07 03:17:01;;;;;;;;;3.33;1.67;;;;;13.66;62.14;99155.63;4993416;28;45395;-71
2022/04/07 03:19:27;;;;;;;;;2.00;1.00;;;;;13.63;62.12;99136.06;5012145;28;45633;-72
2022/04/07 03:21:52;;;;;;;;;1.00;1.00;;;;;13.64;62.66;99126.69;5011653;28;45737;-72
2022/04/07 03:24:17;;;;;;;;;2.33;0.00;;;;;13.62;62.39;99126.97;5012648;28;45701;-72
2022/04/07 03:26:43;;;;;;;;;1.33;0.00;;;;;13.65;62.24;99114.56;5012964;28;45738;-73
2022/04/07 03:29:08;;;;;;;;;2.67;0.67;;;;;13.71;62.76;99106.09;5012435;28;45753;-73
2022/04/07 03:31:34;;;;;;;;;0.00;0.00;;;;;13.71;62.88;99100.56;5012487;28;45698;-74
2022/04/07 03:33:59;;;;;;;;;0.33;0.00;;;;;13.72;62.44;99090.38;5011916;28;45754;-72
2022/04/07 03:36:25;;;;;;;;;0.00;0.00;;;;;13.74;62.32;99088.16;4994770;28;45803;-70
2022/04/07 03:38:51;;;;;;;;;1.67;0.67;;;;;13.76;62.26;99075.78;5012506;28;46251;-73
2022/04/07 03:41:17;;;;;;;;;1.67;1.67;;;;;13.76;63.48;99069.44;5012282;28;45838;-72
2022/04/07 03:43:43;;;;;;;;;2.00;1.00;;;;;13.71;63.54;99066.66;5012163;28;46432;-72
2022/04/07 03:46:09;;;;;;;;;1.67;0.00;;;;;13.72;63.24;99049.03;5012591;28;45735;-71
2022/04/07 03:48:35;;;;;;;;;0.67;0.00;;;;;13.80;62.94;99054.00;4995080;28;45680;-72
2022/04/07 03:51:00;;;;;;;;;0.00;0.00;;;;;13.82;63.41;99031.69;5012254;28;45455;-73
2022/04/07 03:53:26;;;;;;;;;2.00;0.33;;;;;13.85;63.26;99026.47;5012156;28;46020;-72
2022/04/07 03:55:51;;;;;;;;;4.33;1.33;;;;;13.80;63.88;99012.69;5011182;28;45630;-72
2022/04/07 03:58:16;;;;;;;;;2.00;1.67;;;;;13.87;64.09;99015.19;5002573;28;45328;-72
2022/04/07 04:00:42;;;;;;;;;0.00;0.00;;;;;13.86;64.08;99008.84;5012432;28;45757;-73
2022/04/07 04:03:08;;;;;;;;;2.33;1.00;;;;;13.85;63.31;99001.69;5011861;28;46305;-73
2022/04/07 04:05:33;;;;;;;;;2.67;1.00;;;;;13.88;63.68;99001.13;5012428;28;45364;-72
2022/04/07 04:07:59;;;;;;;;;2.67;1.67;;;;;13.89;63.77;99000.03;5012357;28;45412;-72
2022/04/07 04:10:25;;;;;;;;;1.67;1.67;;;;;13.90;63.59;98979.63;5012056;28;45411;-73
2022/04/07 04:12:51;;;;;;;;;2.00;1.00;;;;;13.89;63.87;98969.72;5011295;28;46113;-72
2022/04/07 04:15:16;;;;;;;;;0.67;0.67;;;;;13.91;63.41;98962.00;5011917;28;45786;-73
2022/04/07 04:17:41;;;;;;;;;2.00;0.33;;;;;13.92;63.30;98971.09;5009466;28;45411;-74
2022/04/07 04:20:08;;;;;;;;;1.67;0.33;;;;;13.92;63.63;98977.44;5011193;28;45620;-72
2022/04/07 04:22:33;;;;;;;;;1.00;0.00;;;;;13.92;64.36;98960.91;5011520;28;45767;-71
2022/04/07 04:24:59;;;;;;;;;0.33;0.33;;;;;13.92;63.90;98944.38;5011901;28;45374;-72
2022/04/07 04:27:24;;;;;;;;;0.50;0.50;;;;;13.92;64.33;98963.66;4992394;28;45583;-72
2022/04/07 04:29:50;;;;;;;;;0.67;0.67;;;;;13.90;64.61;98957.59;4993164;28;45259;-79
2022/04/07 04:32:15;;;;;;;;;0.67;0.67;;;;;13.94;63.54;98975.22;4994019;28;46340;-79
2022/04/07 04:34:41;;;;;;;;;0.00;0.00;;;;;13.90;64.28;98957.59;4994962;28;45680;-79
2022/04/07 04:37:07;;;;;;;;;1.00;0.67;;;;;13.94;64.45;98961.44;4996154;28;45411;-76
2022/04/07 04:39:32;;;;;;;;;0.33;0.33;;;;;13.93;64.47;98958.97;4994381;28;47052;-77
2022/04/07 04:41:57;;;;;;;;;1.67;1.00;;;;;13.95;64.11;98956.75;4995437;28;45950;-78
2022/04/07 04:44:23;;;;;;;;;0.33;0.33;;;;;13.95;64.96;98952.09;4977551;28;45940;-78
2022/04/07 04:46:49;;;;;;;;;1.00;1.00;;;;;14.00;64.92;98953.19;4994308;28;45509;-79
2022/04/07 04:49:14;;;;;;;;;3.00;2.00;;;;;13.92;65.77;98930.59;4995385;28;45662;-78
2022/04/07 04:51:40;;;;;;;;;2.67;0.33;;;;;13.92;65.17;98929.75;4984222;28;45407;-77
2022/04/07 04:54:05;;;;;;;;;2.67;1.67;;;;;13.95;65.46;98924.53;4997439;28;45632;-78
2022/04/07 04:56:31;;;;;;;;;3.67;2.67;;;;;13.94;64.23;98933.88;5014595;28;45852;-73
2022/04/07 04:58:57;;;;;;;;;3.00;2.00;;;;;13.94;64.20;98931.13;5014158;28;45414;-72
2022/04/07 05:01:26;;;;;;;;;3.67;1.00;;;;;13.99;64.18;98918.47;5014294;28;45853;-71
2022/04/07 05:03:51;;;;;;;;;2.33;0.00;;;;;14.02;64.07;98924.22;5013271;28;45830;-73
2022/04/07 05:06:16;;;;;;;;;1.67;1.67;;;;;14.03;63.61;98919.56;5013385;28;45710;-73
2022/04/07 05:08:42;;;;;;;;;2.00;0.67;;;;;13.98;63.78;98919.56;5010040;28;45970;-72
2022/04/07 05:11:07;;;;;;;;;5.33;1.33;;;;;14.04;63.72;98904.66;5013882;28;46320;-72
2022/04/07 05:13:33;;;;;;;;;0.67;0.67;;;;;14.05;63.37;98907.13;4996362;28;45669;-72
2022/04/07 05:15:58;;;;;;;;;1.00;1.00;;;;;14.06;63.27;98903.28;5013643;28;45803;-73
2022/04/07 05:18:24;;;;;;;;;0.67;0.67;;;;;14.06;62.69;98896.97;5010103;28;46068;-71
2022/04/07 05:20:49;;;;;;;;;2.33;1.00;;;;;14.15;62.25;98903.56;5013244;28;45732;-72
2022/04/07 05:23:15;;;;;;;;;4.33;2.00;;;;;14.21;61.82;98893.34;5014377;28;45782;-72
2022/04/07 05:25:40;;;;;;;;;2.00;0.00;;;;;14.22;61.91;98883.97;5012651;28;45688;-70
2022/04/07 05:28:06;;;;;;;;;1.00;0.00;;;;;14.24;62.13;98877.06;5012680;28;45315;-72
2022/04/07 05:30:32;;;;;;;;;1.00;1.00;;;;;14.29;61.78;98871.53;5013171;28;48396;-74
2022/04/07 05:32:58;;;;;;;;;0.67;0.67;;;;;14.31;61.63;98871.25;5014094;28;45638;-73
2022/04/07 05:35:27;;;;;;;;;7.33;3.00;;;;;14.33;62.15;98876.50;5013250;28;45435;-73
2022/04/07 05:38:00;;;;;;;;;1.00;1.00;;;;;14.35;62.43;98869.59;4993987;28;46101;-74
2022/04/07 05:40:26;;;;;;;;;3.00;3.00;;;;;14.40;62.31;98853.03;5012627;28;46103;-74
2022/04/07 05:42:52;;;;;;;;;1.67;1.33;;;;;14.42;62.24;98861.84;5016181;28;45451;-73
2022/04/07 05:45:17;;;;;;;;;0.00;0.00;;;;;14.42;61.75;98856.34;5029892;28;45411;-72
2022/04/07 05:47:42;;;;;;;;;0.00;0.00;;;;;14.42;62.01;98847.25;5033694;28;45826;-77
2022/04/07 05:50:10;;;;;;;;;1.00;1.00;;;;;14.44;61.59;98842.25;5033534;28;46418;-73
2022/04/07 05:52:35;;;;;;;;;1.00;1.00;;;;;14.44;61.04;98858.81;5033364;28;45792;-75
2022/04/07 05:55:01;;;;;;;;;2.00;1.00;;;;;14.43;60.56;98846.13;5027589;28;45647;-73
2022/04/07 05:57:30;;;;;;;;;0.33;0.33;;;;;14.43;61.21;98835.94;5012154;28;45338;-74
2022/04/07 06:00:04;;;;;;;;;3.00;1.33;;;;;14.53;61.13;98850.78;5012149;28;45632;-76
2022/04/07 06:02:30;;;;;;;;;0.00;0.00;;;;;14.52;60.45;98836.19;5012129;28;45700;-75
2022/04/07 06:04:55;;;;;;;;;0.67;0.67;;;;;14.56;60.16;98853.78;5009534;28;45281;-74
2022/04/07 06:07:21;;;;;;;;;1.00;0.67;;;;;14.56;60.17;98831.72;5012252;28;45539;-77
2022/04/07 06:09:50;;;;;;;;;1.00;0.00;;;;;14.52;59.31;98827.91;5013165;28;46657;-75
2022/04/07 06:12:15;;;;;;;;;2.00;0.67;;;;;14.49;59.38;98834.00;5011194;28;45507;-73
2022/04/07 06:14:41;;;;;;;;;0.00;0.00;;;;;14.56;59.47;98826.22;5011389;28;45995;-73
2022/04/07 06:17:06;;;;;;;;;0.33;0.33;;;;;14.57;59.69;98830.63;5014986;28;45419;-73
2022/04/07 06:19:31;;;;;;;;;2.00;0.67;;;;;14.57;59.97;98827.88;5007877;28;45369;-75
2022/04/07 06:21:57;;;;;;;;;0.00;0.00;;;;;14.56;60.95;98834.47;5011185;28;45418;-74
2022/04/07 06:24:22;;;;;;;;;1.33;0.67;;;;;14.55;60.96;98820.97;5011146;28;45464;-74
2022/04/07 06:26:49;;;;;;;;;2.00;1.00;;;;;14.53;60.81;98829.53;5011678;28;45524;-73
2022/04/07 06:29:15;;;;;;;;;3.00;0.00;;;;;14.55;60.18;98819.06;5012069;28;45508;-75
2022/04/07 06:31:40;;;;;;;;;1.00;0.00;;;;;14.55;61.09;98820.97;5012096;28;45688;-76
2022/04/07 06:34:06;;;;;;;;;1.00;1.00;;;;;14.57;60.77;98814.06;5011023;28;45727;-74
2022/04/07 06:36:31;;;;;;;;;2.00;1.33;;;;;14.52;61.20;98814.13;5011348;28;45924;-74
2022/04/07 06:38:57;;;;;;;;;1.67;0.33;;;;;14.54;61.28;98803.59;5011494;28;46154;-75
2022/04/07 06:41:22;;;;;;;;;0.67;0.67;;;;;14.60;61.47;98798.91;5011944;28;45489;-73
2022/04/07 06:43:47;;;;;;;;;2.00;1.00;;;;;14.61;61.67;98817.13;5011817;28;45576;-73
2022/04/07 06:46:13;;;;;;;;;1.33;1.33;;;;;14.62;61.50;98824.28;5012513;28;45479;-76
2022/04/07 06:48:39;;;;;;;;;1.67;0.67;;;;;14.60;61.52;98794.19;5010600;28;46666;-74
2022/04/07 06:51:04;;;;;;;;;0.67;0.67;;;;;14.67;61.30;98790.31;4992703;28;45693;-72
2022/04/07 06:53:29;;;;;;;;;0.67;0.67;;;;;14.72;60.27;98799.41;5011200;28;45417;-74
2022/04/07 06:55:55;;;;;;;;;0.67;0.67;;;;;14.79;60.09;98790.81;5009470;28;45774;-73
2022/04/07 06:58:20;;;;;;;;;2.00;0.00;;;;;14.84;60.60;98793.56;4993250;28;47150;-73
2022/04/07 07:00:46;;;;;;;;;2.33;1.00;;;;;14.87;60.65;98800.44;5010599;28;45668;-74
2022/04/07 07:03:16;;;;;;;;;0.00;0.00;;;;;14.89;60.19;98793.50;5008041;28;45649;-73
2022/04/07 07:05:43;;;;;;;;;0.00;0.00;;;;;14.80;59.62;98773.16;5003015;28;46175;-71
2022/04/07 07:08:15;;;;;;;;;2.33;1.00;;;;;14.92;60.55;98792.94;4998185;28;47131;-70
2022/04/07 07:10:42;;;;;;;;;0.00;0.00;;;;;14.98;60.30;98791.81;5007071;28;46375;-71
2022/04/07 07:13:14;;;;;;;;;1.67;1.67;;;;;14.94;59.85;98774.16;4990920;28;45839;-70
2022/04/07 07:15:41;;;;;;;;;0.67;0.00;;;;;14.98;60.20;98785.44;5009155;28;45363;-71
2022/04/07 07:18:07;;;;;;;;;0.00;0.00;;;;;14.97;60.07;98772.75;5008269;28;46221;-70
2022/04/07 07:20:32;;;;;;;;;1.00;1.00;;;;;15.06;59.71;98782.09;4985983;28;45620;-71
2022/04/07 07:22:58;;;;;;;;;2.00;0.33;;;;;15.08;60.44;98790.09;5008490;28;45588;-69
2022/04/07 07:25:24;;;;;;;;;2.00;0.00;;;;;15.07;60.25;98772.69;5007098;28;45908;-71
2022/04/07 07:27:49;;;;;;;;;0.67;0.67;;;;;15.19;60.46;98786.13;5009501;28;46284;-70
2022/04/07 07:30:17;;;;;;;;;0.00;0.00;;;;;15.25;59.88;98784.97;5007923;28;45850;-71
2022/04/07 07:32:44;;;;;;;;;2.00;1.00;;;;;15.28;59.79;98770.56;5007966;28;45884;-70
2022/04/07 07:35:10;;;;;;;;;0.00;0.00;;;;;15.27;59.89;98768.94;5007339;28;46178;-71
2022/04/07 07:37:36;;;;;;;;;0.00;0.00;;;;;15.30;59.70;98771.13;5008500;28;46103;-70
2022/04/07 07:40:09;;;;;;;;;3.00;0.00;;;;;15.44;59.59;98776.00;4990751;28;45718;-69
2022/04/07 07:42:36;;;;;;;;;0.00;0.00;;;;;15.46;59.44;98763.53;5006879;28;45966;-72
2022/04/07 07:45:03;;;;;;;;;1.00;0.00;;;;;15.62;59.18;98780.78;5007930;28;45495;-70
2022/04/07 07:47:28;;;;;;;;;0.00;0.00;;;;;15.87;58.68;98765.94;5009047;28;46533;-71
2022/04/07 07:49:54;;;;;;;;;0.00;0.00;;;;;16.16;57.90;98753.16;5008033;28;45761;-71
2022/04/07 07:52:19;;;;;;;;;0.00;0.00;;;;;16.21;57.38;98767.75;5008375;28;45837;-71
2022/04/07 07:54:45;;;;;;;;;0.00;0.00;;;;;16.14;57.58;98756.22;5008352;28;45871;-73
2022/04/07 07:57:10;;;;;;;;;0.00;0.00;;;;;16.15;57.90;98759.81;5008474;28;45823;-70
2022/04/07 07:59:36;;;;;;;;;0.67;0.00;;;;;16.15;58.76;98780.00;5008759;28;45906;-70
2022/04/07 08:02:01;;;;;;;;;0.00;0.00;;;;;16.11;58.64;98762.34;5009974;28;45706;-70
2022/04/07 08:04:27;;;;;;;;;0.00;0.00;;;;;16.31;57.96;98754.91;5008004;28;45611;-71
2022/04/07 08:06:52;;;;;;;;;0.00;0.00;;;;;16.35;57.90;98762.34;4992911;28;47755;-71
2022/04/07 08:09:17;;;;;;;;;0.00;0.00;;;;;16.49;57.16;98751.34;4991036;28;45721;-71
2022/04/07 08:11:43;;;;;;;;;0.00;0.00;;;;;16.60;56.92;98740.97;5007009;28;45440;-71
2022/04/07 08:14:09;;;;;;;;;0.00;0.00;;;;;16.71;56.34;98742.47;5006208;28;45701;-68
2022/04/07 08:16:39;;;;;;;;;0.00;0.00;;;;;16.77;56.95;98735.72;5005957;28;46353;-70
2022/04/07 08:19:09;;;;;;;;;3.00;0.00;;;;;16.97;56.92;98731.03;5006889;28;46252;-69
2022/04/07 08:21:34;;;;;;;;;0.00;0.00;;;;;17.06;57.26;98737.53;5006845;28;45971;-71
2022/04/07 08:24:00;;;;;;;;;0.00;0.00;;;;;17.10;56.77;98738.59;5008975;28;45821;-69
2022/04/07 08:26:25;;;;;;;;;0.00;0.00;;;;;16.99;56.68;98731.56;4987151;28;47834;-71
2022/04/07 08:28:51;;;;;;;;;0.00;0.00;;;;;17.13;55.89;98750.19;5005903;28;45751;-72
2022/04/07 08:31:16;;;;;;;;;0.00;0.00;;;;;17.42;54.70;98753.56;5009803;28;45781;-73
2022/04/07 08:33:42;;;;;;;;;0.00;0.00;;;;;17.70;54.03;98733.41;5008548;28;46074;-70
2022/04/07 08:36:07;;;;;;;;;0.00;0.00;;;;;17.94;53.03;98733.25;5007813;28;46294;-72
2022/04/07 08:38:33;;;;;;;;;0.00;0.00;;;;;18.11;52.53;98740.97;5006520;28;45979;-71
2022/04/07 08:41:00;;;;;;;;;0.67;0.00;;;;;18.34;52.50;98742.69;5006731;28;45771;-71
2022/04/07 08:43:26;;;;;;;;;0.00;0.00;;;;;18.67;51.63;98733.41;5006609;28;45864;-72
2022/04/07 08:45:52;;;;;;;;;0.00;0.00;;;;;18.80;50.83;98742.81;5009000;28;45544;-72
2022/04/07 08:48:17;;;;;;;;;0.00;0.00;;;;;18.90;50.15;98720.38;5008307;28;45582;-70
2022/04/07 08:50:49;;;;;;;;;0.00;0.00;;;;;18.83;50.26;98720.81;5008578;28;45751;-71
2022/04/07 08:53:18;;;;;;;;;0.00;0.00;;;;;18.72;50.98;98735.25;5007074;28;47068;-71
2022/04/07 08:55:44;;;;;;;;;0.00;0.00;;;;;18.79;50.67;98725.34;5007003;28;45738;-71
2022/04/07 08:58:17;;;;;;;;;0.00;0.00;;;;;18.92;49.79;98711.75;4989444;28;45980;-72
2022/04/07 09:00:44;;;;;;;;;0.00;0.00;;;;;18.96;49.56;98721.09;5010586;28;45777;-72
2022/04/07 09:03:16;;;;;;;;;0.00;0.00;;;;;19.13;49.44;98729.56;5016827;28;45441;-71
2022/04/07 09:06:01;;;;;;;;;0.00;0.00;;;;;18.96;49.63;98729.44;5012925;28;45833;-71
2022/04/07 09:08:35;;;;;;;;;0.00;0.00;;;;;18.63;50.07;98721.28;5017575;28;45336;-71
2022/04/07 09:11:08;;;;;;;;;0.00;0.00;;;;;18.82;50.33;98732.22;5017245;28;45511;-72
2022/04/07 09:13:35;;;;;;;;;0.00;0.00;;;;;18.74;50.27;98732.97;4996090;28;45665;-72
2022/04/07 09:16:07;;;;;;;;;0.00;0.00;;;;;18.69;50.52;98740.25;5014494;28;46360;-72
2022/04/07 09:18:37;;;;;;;;;1.00;0.00;;;;;18.79;50.50;98730.88;5001131;28;45561;-72
2022/04/07 09:21:07;;;;;;;;;0.00;0.00;;;;;18.86;50.83;98725.75;5017260;28;45851;-71
2022/04/07 09:23:38;;;;;;;;;0.00;0.00;;;;;18.98;49.66;98732.69;5012585;28;45482;-71
2022/04/07 09:26:03;;;;;;;;;0.00;0.00;;;;;18.92;49.78;98707.00;5024091;28;45681;-72
2022/04/07 09:28:30;;;;;;;;;0.67;0.00;;;;;18.90;49.96;98731.50;5012475;28;45747;-72
2022/04/07 09:30:58;;;;;;;;;0.00;0.00;;;;;18.90;49.63;98725.94;5012328;28;45319;-72
2022/04/07 09:33:25;;;;;;;;;0.00;0.00;;;;;18.90;50.23;98747.34;5011235;28;45836;-72
2022/04/07 09:36:10;;;;;;;;;0.00;0.00;;;;;18.83;50.03;98731.06;5017852;28;45609;-74
2022/04/07 09:38:37;;;;;;;;;0.00;0.00;;;;;18.98;49.63;98744.66;5022211;28;46473;-74
2022/04/07 09:41:13;;;;;;;;;0.00;0.00;;;;;19.08;50.10;98742.75;5011611;28;45496;-74
2022/04/07 09:43:58;;;;;;;;;0.00;0.00;;;;;19.16;49.57;98758.66;5011625;28;46361;-72
2022/04/07 09:46:32;;;;;;;;;0.00;0.00;;;;;19.13;49.65;98745.41;5008802;28;45485;-72
2022/04/07 09:49:03;;;;;;;;;0.00;0.00;;;;;19.17;49.87;98755.56;5007273;28;45700;-73
2022/04/07 09:51:29;;;;;;;;;0.00;0.00;;;;;18.96;50.04;98759.97;5015353;28;45465;-73
2022/04/07 09:53:56;;;;;;;;;0.00;0.00;;;;;18.82;51.30;98774.69;4993594;28;47315;-73
2022/04/07 09:56:28;;;;;;;;;0.00;0.00;;;;;18.82;51.93;98773.88;5014198;28;45837;-74
2022/04/07 09:58:57;;;;;;;;;0.00;0.00;;;;;18.83;52.61;98790.25;5011179;28;45996;-73
2022/04/07 10:01:51;;;;;;;;;0.00;0.00;;;;;18.60;53.96;98783.78;5012207;28;45624;-73
2022/04/07 10:04:16;;;;;;;;;0.00;0.00;;;;;18.43;55.33;98839.94;4992742;28;45868;-72
2022/04/07 10:06:43;;;;;;;;;0.67;0.67;;;;;18.18;57.08;98878.13;5009663;28;46665;-73
2022/04/07 10:09:09;;;;;;;;;0.00;0.00;;;;;18.04;58.81;98854.28;5011152;28;45337;-73
2022/04/07 10:11:35;;;;;;;;;0.00;0.00;;;;;17.78;56.41;98851.91;5010878;28;45592;-73
2022/04/07 10:14:02;;;;;;;;;0.75;0.75;;;;;17.72;57.11;98869.78;5010121;28;45849;-75
2022/04/07 10:16:32;;;;;;;;;1.00;1.00;;;;;17.76;57.39;98870.81;5003959;28;46171;-74
2022/04/07 10:19:33;;;;;;;;;2.33;2.00;;;;;17.97;56.80;98868.56;5012310;28;45794;-76
2022/04/07 10:22:10;;;;;;;;;1.00;1.00;;;;;18.27;57.14;98874.66;4949577;28;45659;-74
2022/04/07 10:24:40;;;;;;;;;5.00;5.00;;;;;18.62;55.63;98880.66;5003111;28;45704;-73
2022/04/07 10:27:11;;;;;;;;;2.00;1.00;;;;;18.95;54.06;98886.97;5011199;28;45675;-73
2022/04/07 10:30:03;;;;;;;;;4.33;3.33;;;;;19.18;52.30;98898.94;5009893;28;45771;-74
2022/04/07 10:32:50;;;;;;;;;2.00;1.00;;;;;19.23;51.23;98932.16;5004649;28;45821;-74
2022/04/07 10:35:32;;;;;;;;;0.00;0.00;;;;;19.21;49.92;98911.41;5003504;28;45500;-69
2022/04/07 10:38:00;;;;;;;;;2.00;0.00;;;;;19.55;49.10;98910.06;5004613;28;46562;-70
2022/04/07 10:40:40;;;;;;;;;0.00;0.00;;;;;19.87;48.98;98913.81;5008361;28;45581;-72
2022/04/07 10:43:20;;;;;;;;;0.00;0.00;;;;;19.92;47.95;98922.84;5007738;28;45796;-71
2022/04/07 10:46:13;;;;;;;;;0.00;0.00;;;;;19.71;47.81;98928.03;5006388;28;45755;-71
2022/04/07 10:48:50;;;;;;;;;0.00;0.00;;;;;19.62;47.28;98931.88;5012642;28;46697;-74
2022/04/07 10:51:16;;;;;;;;;1.00;1.00;;;;;19.63;47.43;98930.75;5012020;28;45846;-74
2022/04/07 10:53:57;;;;;;;;;0.00;0.00;;;;;19.91;45.85;98940.69;5013000;28;45359;-71
2022/04/07 10:56:25;;;;;;;;;1.33;0.33;;;;;20.03;45.43;98950.41;5013004;28;45693;-72
2022/04/07 10:58:57;;;;;;;;;2.00;1.00;;;;;20.42;44.09;98923.81;5012574;28;45735;-71
2022/04/07 11:01:29;;;;;;;;;0.00;0.00;;;;;20.28;43.79;98938.66;4993025;28;45723;-71
2022/04/07 11:07:07;;;;;;;;;0.00;0.00;;;;;19.98;43.73;98948.56;5011288;28;45547;-72
2022/04/07 11:10:21;;;;;;;;;0.00;0.00;;;;;19.81;43.88;98968.72;5011528;28;45414;-72
2022/04/07 11:13:03;;;;;;;;;1.00;1.00;;;;;19.37;44.30;98959.97;4993565;28;45834;-71
2022/04/07 11:15:43;;;;;;;;;0.00;0.00;;;;;19.17;44.44;98952.88;5010821;28;45746;-73
2022/04/07 11:18:38;;;;;;;;;0.67;0.00;;;;;19.11;43.86;98969.97;5011401;28;45618;-71
2022/04/07 11:21:09;;;;;;;;;0.00;0.00;;;;;18.83;43.91;98972.72;5010227;28;45977;-73
2022/04/07 11:23:52;;;;;;;;;0.00;0.00;;;;;18.74;43.96;98972.59;5011659;28;45394;-71
2022/04/07 11:26:21;;;;;;;;;0.00;0.00;;;;;18.99;43.53;98987.16;5009695;28;45639;-71
2022/04/07 11:29:10;;;;;;;;;0.67;0.00;;;;;19.25;42.96;98981.06;5011921;28;45273;-72
2022/04/07 11:31:50;;;;;;;;;0.00;0.00;;;;;19.36;42.68;98982.50;5011830;28;45717;-71
2022/04/07 11:34:40;;;;;;;;;0.00;0.00;;;;;19.63;42.44;99003.88;5011429;28;45778;-70
2022/04/07 11:37:07;;;;;;;;;1.00;0.00;;;;;19.73;41.57;98994.47;5010703;28;45741;-72
2022/04/07 11:39:33;;;;;;;;;0.00;0.00;;;;;19.80;40.33;98997.69;5012020;28;45382;-72
2022/04/07 11:42:00;;;;;;;;;0.00;0.00;;;;;19.87;40.21;98991.69;5012634;28;45573;-71